sensor_id;sensor_type;location;lat;lon;timestamp;temperature;humidity
7117;DHT22;3600;48.568;7.870;2023-06-14T00:01:56;16.10;78.10
7117;DHT22;3600;48.568;7.870;2023-06-14T00:04:23;16.30;77.80
7117;DHT22;3600;48.568;7.870;2023-06-14T00:06:52;16.70;77.40
7117;DHT22;3600;48.568;7.870;2023-06-14T00:09:19;16.50;76.90
7117;DHT22;3600;48.568;7.870;2023-06-14T00:11:45;16.40;77.70
7117;DHT22;3600;48.568;7.870;2023-06-14T00:14:13;16.50;77.60
7117;DHT22;3600;48.568;7.870;2023-06-14T00:16:40;16.40;77.00
7117;DHT22;3600;48.568;7.870;2023-06-14T00:19:09;16.30;78.00
7117;DHT22;3600;48.568;7.870;2023-06-14T00:21:37;16.50;77.80
7117;DHT22;3600;48.568;7.870;2023-06-14T00:24:05;16.50;77.20
7117;DHT22;3600;48.568;7.870;2023-06-14T00:26:32;16.60;77.50
7117;DHT22;3600;48.568;7.870;2023-06-14T00:28:59;16.40;77.30
7117;DHT22;3600;48.568;7.870;2023-06-14T00:31:26;16.30;77.70
7117;DHT22;3600;48.568;7.870;2023-06-14T00:33:53;16.40;78.10
7117;DHT22;3600;48.568;7.870;2023-06-14T00:36:19;16.70;77.40
7117;DHT22;3600;48.568;7.870;2023-06-14T00:38:46;16.50;77.10
7117;DHT22;3600;48.568;7.870;2023-06-14T00:41:13;16.20;78.80
7117;DHT22;3600;48.568;7.870;2023-06-14T00:43:40;16.10;78.80
7117;DHT22;3600;48.568;7.870;2023-06-14T00:46:07;16.30;78.20
7117;DHT22;3600;48.568;7.870;2023-06-14T00:48:36;15.90;78.50
7117;DHT22;3600;48.568;7.870;2023-06-14T00:51:03;15.60;79.80
7117;DHT22;3600;48.568;7.870;2023-06-14T00:53:31;15.60;80.00
7117;DHT22;3600;48.568;7.870;2023-06-14T00:56:00;15.60;80.30
7117;DHT22;3600;48.568;7.870;2023-06-14T00:58:28;15.60;79.70
7117;DHT22;3600;48.568;7.870;2023-06-14T01:00:55;15.60;80.20
7117;DHT22;3600;48.568;7.870;2023-06-14T01:03:22;15.60;80.50
7117;DHT22;3600;48.568;7.870;2023-06-14T01:05:56;15.50;81.10
7117;DHT22;3600;48.568;7.870;2023-06-14T01:08:50;15.50;81.20
7117;DHT22;3600;48.568;7.870;2023-06-14T01:11:30;15.60;81.40
7117;DHT22;3600;48.568;7.870;2023-06-14T01:14:00;15.60;81.30
7117;DHT22;3600;48.568;7.870;2023-06-14T01:16:29;15.40;81.80
7117;DHT22;3600;48.568;7.870;2023-06-14T01:19:01;15.50;82.30
7117;DHT22;3600;48.568;7.870;2023-06-14T01:21:29;15.50;82.40
7117;DHT22;3600;48.568;7.870;2023-06-14T01:23:56;15.60;81.80
7117;DHT22;3600;48.568;7.870;2023-06-14T01:26:24;15.80;81.60
7117;DHT22;3600;48.568;7.870;2023-06-14T01:28:54;15.60;81.50
7117;DHT22;3600;48.568;7.870;2023-06-14T01:31:26;15.50;82.30
7117;DHT22;3600;48.568;7.870;2023-06-14T01:33:53;15.40;82.30
7117;DHT22;3600;48.568;7.870;2023-06-14T01:36:22;15.30;83.30
7117;DHT22;3600;48.568;7.870;2023-06-14T01:38:52;15.80;82.60
7117;DHT22;3600;48.568;7.870;2023-06-14T01:41:19;15.60;82.50
7117;DHT22;3600;48.568;7.870;2023-06-14T01:43:48;15.40;83.40
7117;DHT22;3600;48.568;7.870;2023-06-14T01:46:16;15.70;82.90
7117;DHT22;3600;48.568;7.870;2023-06-14T01:48:43;15.60;82.90
7117;DHT22;3600;48.568;7.870;2023-06-14T01:51:11;15.70;83.00
7117;DHT22;3600;48.568;7.870;2023-06-14T01:53:38;15.90;82.20
7117;DHT22;3600;48.568;7.870;2023-06-14T01:56:05;15.70;82.90
7117;DHT22;3600;48.568;7.870;2023-06-14T01:58:32;15.60;83.60
7117;DHT22;3600;48.568;7.870;2023-06-14T02:00:59;15.80;83.40
7117;DHT22;3600;48.568;7.870;2023-06-14T02:03:29;15.90;82.90
7117;DHT22;3600;48.568;7.870;2023-06-14T02:05:56;15.60;83.40
7117;DHT22;3600;48.568;7.870;2023-06-14T02:08:24;15.30;84.10
7117;DHT22;3600;48.568;7.870;2023-06-14T02:10:51;15.00;85.60
7117;DHT22;3600;48.568;7.870;2023-06-14T02:13:18;14.60;87.00
7117;DHT22;3600;48.568;7.870;2023-06-14T02:15:45;14.70;86.80
7117;DHT22;3600;48.568;7.870;2023-06-14T02:18:12;14.60;86.90
7117;DHT22;3600;48.568;7.870;2023-06-14T02:20:39;14.30;87.90
7117;DHT22;3600;48.568;7.870;2023-06-14T02:23:06;14.30;88.40
7117;DHT22;3600;48.568;7.870;2023-06-14T02:25:34;14.60;88.20
7117;DHT22;3600;48.568;7.870;2023-06-14T02:28:02;14.40;88.10
7117;DHT22;3600;48.568;7.870;2023-06-14T02:30:37;14.80;87.80
7117;DHT22;3600;48.568;7.870;2023-06-14T02:33:07;14.80;87.60
7117;DHT22;3600;48.568;7.870;2023-06-14T02:35:34;15.00;87.60
7117;DHT22;3600;48.568;7.870;2023-06-14T02:38:01;14.80;88.10
7117;DHT22;3600;48.568;7.870;2023-06-14T02:40:28;14.40;89.60
7117;DHT22;3600;48.568;7.870;2023-06-14T02:42:54;14.50;90.20
7117;DHT22;3600;48.568;7.870;2023-06-14T02:45:21;14.50;90.40
7117;DHT22;3600;48.568;7.870;2023-06-14T02:47:48;14.60;90.00
7117;DHT22;3600;48.568;7.870;2023-06-14T02:50:15;14.00;90.80
7117;DHT22;3600;48.568;7.870;2023-06-14T02:52:43;13.90;91.40
7117;DHT22;3600;48.568;7.870;2023-06-14T02:55:11;14.20;91.30
7117;DHT22;3600;48.568;7.870;2023-06-14T02:57:38;14.00;91.10
7117;DHT22;3600;48.568;7.870;2023-06-14T03:00:20;14.00;91.40
7117;DHT22;3600;48.568;7.870;2023-06-14T03:03:38;13.90;91.60
7117;DHT22;3600;48.568;7.870;2023-06-14T03:06:28;14.10;91.90
7117;DHT22;3600;48.568;7.870;2023-06-14T03:09:14;14.30;91.70
7117;DHT22;3600;48.568;7.870;2023-06-14T03:12:01;14.40;91.60
7117;DHT22;3600;48.568;7.870;2023-06-14T03:14:43;14.00;92.20
7117;DHT22;3600;48.568;7.870;2023-06-14T03:17:13;14.10;92.40
7117;DHT22;3600;48.568;7.870;2023-06-14T03:19:40;14.10;92.60
7117;DHT22;3600;48.568;7.870;2023-06-14T03:22:08;14.10;92.70
7117;DHT22;3600;48.568;7.870;2023-06-14T03:24:35;13.40;93.90
7117;DHT22;3600;48.568;7.870;2023-06-14T03:27:04;13.40;94.40
7117;DHT22;3600;48.568;7.870;2023-06-14T03:29:30;13.50;94.60
7117;DHT22;3600;48.568;7.870;2023-06-14T03:32:09;13.50;94.30
7117;DHT22;3600;48.568;7.870;2023-06-14T03:35:08;13.60;94.70
7117;DHT22;3600;48.568;7.870;2023-06-14T03:41:07;13.70;94.90
7117;DHT22;3600;48.568;7.870;2023-06-14T03:44:06;13.90;94.40
7117;DHT22;3600;48.568;7.870;2023-06-14T03:46:47;13.80;94.60
7117;DHT22;3600;48.568;7.870;2023-06-14T03:49:50;13.80;94.60
7117;DHT22;3600;48.568;7.870;2023-06-14T03:52:26;14.00;94.10
7117;DHT22;3600;48.568;7.870;2023-06-14T03:54:53;14.10;94.00
7117;DHT22;3600;48.568;7.870;2023-06-14T03:57:40;14.00;94.20
7117;DHT22;3600;48.568;7.870;2023-06-14T04:00:09;14.00;93.90
7117;DHT22;3600;48.568;7.870;2023-06-14T04:02:37;14.00;94.00
7117;DHT22;3600;48.568;7.870;2023-06-14T04:05:04;13.90;94.00
7117;DHT22;3600;48.568;7.870;2023-06-14T04:07:35;14.00;93.90
7117;DHT22;3600;48.568;7.870;2023-06-14T04:10:12;14.10;93.70
7117;DHT22;3600;48.568;7.870;2023-06-14T04:12:39;13.80;94.00
7117;DHT22;3600;48.568;7.870;2023-06-14T04:15:09;13.70;94.10
7117;DHT22;3600;48.568;7.870;2023-06-14T04:17:47;13.50;94.70
7117;DHT22;3600;48.568;7.870;2023-06-14T04:20:14;13.70;94.70
7117;DHT22;3600;48.568;7.870;2023-06-14T04:22:41;13.80;94.50
7117;DHT22;3600;48.568;7.870;2023-06-14T04:25:10;14.00;94.20
7117;DHT22;3600;48.568;7.870;2023-06-14T04:27:38;14.00;94.10
7117;DHT22;3600;48.568;7.870;2023-06-14T04:30:06;14.40;93.90
7117;DHT22;3600;48.568;7.870;2023-06-14T04:32:41;14.70;93.30
7117;DHT22;3600;48.568;7.870;2023-06-14T04:35:09;14.60;92.80
7117;DHT22;3600;48.568;7.870;2023-06-14T04:37:37;14.60;92.80
7117;DHT22;3600;48.568;7.870;2023-06-14T04:40:08;14.50;92.70
7117;DHT22;3600;48.568;7.870;2023-06-14T04:42:38;14.20;93.50
7117;DHT22;3600;48.568;7.870;2023-06-14T04:45:07;14.50;93.70
7117;DHT22;3600;48.568;7.870;2023-06-14T04:47:37;14.80;93.80
7117;DHT22;3600;48.568;7.870;2023-06-14T04:50:05;15.00;93.10
7117;DHT22;3600;48.568;7.870;2023-06-14T04:52:32;15.00;92.70
7117;DHT22;3600;48.568;7.870;2023-06-14T04:54:59;14.80;92.50
7117;DHT22;3600;48.568;7.870;2023-06-14T04:57:26;14.80;92.70
7117;DHT22;3600;48.568;7.870;2023-06-14T04:59:53;14.90;92.70
7117;DHT22;3600;48.568;7.870;2023-06-14T05:02:22;15.00;93.00
7117;DHT22;3600;48.568;7.870;2023-06-14T05:04:50;15.00;92.90
7117;DHT22;3600;48.568;7.870;2023-06-14T05:07:17;15.10;92.70
7117;DHT22;3600;48.568;7.870;2023-06-14T05:09:45;15.40;92.50
7117;DHT22;3600;48.568;7.870;2023-06-14T05:12:12;15.30;92.50
7117;DHT22;3600;48.568;7.870;2023-06-14T05:14:38;15.40;92.60
7117;DHT22;3600;48.568;7.870;2023-06-14T05:17:06;15.40;92.50
7117;DHT22;3600;48.568;7.870;2023-06-14T05:19:33;15.50;92.60
7117;DHT22;3600;48.568;7.870;2023-06-14T05:21:59;15.50;93.10
7117;DHT22;3600;48.568;7.870;2023-06-14T05:24:27;15.50;92.90
7117;DHT22;3600;48.568;7.870;2023-06-14T05:26:56;15.50;92.70
7117;DHT22;3600;48.568;7.870;2023-06-14T05:29:22;15.40;93.10
7117;DHT22;3600;48.568;7.870;2023-06-14T05:31:49;15.40;93.10
7117;DHT22;3600;48.568;7.870;2023-06-14T05:34:16;15.60;93.10
7117;DHT22;3600;48.568;7.870;2023-06-14T05:36:43;15.90;92.80
7117;DHT22;3600;48.568;7.870;2023-06-14T05:39:10;15.70;92.80
7117;DHT22;3600;48.568;7.870;2023-06-14T05:41:37;15.70;92.90
7117;DHT22;3600;48.568;7.870;2023-06-14T05:44:04;15.80;92.60
7117;DHT22;3600;48.568;7.870;2023-06-14T05:46:31;16.00;92.20
7117;DHT22;3600;48.568;7.870;2023-06-14T05:48:58;16.20;91.90
7117;DHT22;3600;48.568;7.870;2023-06-14T05:51:25;16.30;91.80
7117;DHT22;3600;48.568;7.870;2023-06-14T05:53:52;16.30;91.70
7117;DHT22;3600;48.568;7.870;2023-06-14T05:56:19;16.20;91.60
7117;DHT22;3600;48.568;7.870;2023-06-14T05:58:46;16.30;91.70
7117;DHT22;3600;48.568;7.870;2023-06-14T06:01:14;16.40;92.50
7117;DHT22;3600;48.568;7.870;2023-06-14T06:03:42;16.50;91.70
7117;DHT22;3600;48.568;7.870;2023-06-14T06:06:13;16.70;92.00
7117;DHT22;3600;48.568;7.870;2023-06-14T06:08:40;16.50;91.90
7117;DHT22;3600;48.568;7.870;2023-06-14T06:11:07;16.70;91.60
7117;DHT22;3600;48.568;7.870;2023-06-14T06:13:34;16.80;91.60
7117;DHT22;3600;48.568;7.870;2023-06-14T06:16:03;16.90;91.50
7117;DHT22;3600;48.568;7.870;2023-06-14T06:18:30;17.00;90.90
7117;DHT22;3600;48.568;7.870;2023-06-14T06:20:57;17.20;90.50
7117;DHT22;3600;48.568;7.870;2023-06-14T06:23:24;17.20;90.20
7117;DHT22;3600;48.568;7.870;2023-06-14T06:25:51;17.30;89.70
7117;DHT22;3600;48.568;7.870;2023-06-14T06:28:18;17.40;88.40
7117;DHT22;3600;48.568;7.870;2023-06-14T06:30:45;17.30;88.00
7117;DHT22;3600;48.568;7.870;2023-06-14T06:33:16;17.50;88.20
7117;DHT22;3600;48.568;7.870;2023-06-14T06:35:56;17.40;87.10
7117;DHT22;3600;48.568;7.870;2023-06-14T06:38:23;17.50;87.50
7117;DHT22;3600;48.568;7.870;2023-06-14T06:41:07;17.70;86.70
7117;DHT22;3600;48.568;7.870;2023-06-14T06:43:34;17.70;86.70
7117;DHT22;3600;48.568;7.870;2023-06-14T06:46:01;17.80;86.40
7117;DHT22;3600;48.568;7.870;2023-06-14T06:48:28;17.80;85.70
7117;DHT22;3600;48.568;7.870;2023-06-14T06:50:55;17.90;85.20
7117;DHT22;3600;48.568;7.870;2023-06-14T06:53:22;18.00;85.70
7117;DHT22;3600;48.568;7.870;2023-06-14T06:56:05;18.10;85.40
7117;DHT22;3600;48.568;7.870;2023-06-14T06:58:32;18.20;84.70
7117;DHT22;3600;48.568;7.870;2023-06-14T07:01:02;18.20;85.40
7117;DHT22;3600;48.568;7.870;2023-06-14T07:03:32;18.30;86.60
7117;DHT22;3600;48.568;7.870;2023-06-14T07:05:59;18.50;85.70
7117;DHT22;3600;48.568;7.870;2023-06-14T07:08:26;18.50;85.50
7117;DHT22;3600;48.568;7.870;2023-06-14T07:10:54;18.70;85.40
7117;DHT22;3600;48.568;7.870;2023-06-14T07:13:21;18.70;84.10
7117;DHT22;3600;48.568;7.870;2023-06-14T07:15:48;18.80;84.20
7117;DHT22;3600;48.568;7.870;2023-06-14T07:18:15;18.80;83.70
7117;DHT22;3600;48.568;7.870;2023-06-14T07:20:42;19.00;84.60
7117;DHT22;3600;48.568;7.870;2023-06-14T07:23:09;19.00;82.80
7117;DHT22;3600;48.568;7.870;2023-06-14T07:25:37;19.00;84.60
7117;DHT22;3600;48.568;7.870;2023-06-14T07:28:04;19.00;83.60
7117;DHT22;3600;48.568;7.870;2023-06-14T07:30:31;19.20;84.90
7117;DHT22;3600;48.568;7.870;2023-06-14T07:32:58;19.30;83.20
7117;DHT22;3600;48.568;7.870;2023-06-14T07:35:25;19.50;83.80
7117;DHT22;3600;48.568;7.870;2023-06-14T07:37:52;19.50;81.90
7117;DHT22;3600;48.568;7.870;2023-06-14T07:40:19;19.60;82.50
7117;DHT22;3600;48.568;7.870;2023-06-14T07:42:46;19.80;82.80
7117;DHT22;3600;48.568;7.870;2023-06-14T07:45:16;19.70;81.80
7117;DHT22;3600;48.568;7.870;2023-06-14T07:47:43;19.90;82.60
7117;DHT22;3600;48.568;7.870;2023-06-14T07:50:11;20.00;83.20
7117;DHT22;3600;48.568;7.870;2023-06-14T07:52:39;20.10;80.20
7117;DHT22;3600;48.568;7.870;2023-06-14T07:55:07;20.00;79.10
7117;DHT22;3600;48.568;7.870;2023-06-14T07:57:33;20.10;80.00
7117;DHT22;3600;48.568;7.870;2023-06-14T08:00:00;20.20;80.50
7117;DHT22;3600;48.568;7.870;2023-06-14T08:02:27;20.20;79.90
7117;DHT22;3600;48.568;7.870;2023-06-14T08:05:02;20.20;79.80
7117;DHT22;3600;48.568;7.870;2023-06-14T08:07:29;20.40;79.00
7117;DHT22;3600;48.568;7.870;2023-06-14T08:09:56;20.40;80.00
7117;DHT22;3600;48.568;7.870;2023-06-14T08:12:23;20.80;80.80
7117;DHT22;3600;48.568;7.870;2023-06-14T08:14:50;20.80;78.70
7117;DHT22;3600;48.568;7.870;2023-06-14T08:17:34;20.80;78.00
7117;DHT22;3600;48.568;7.870;2023-06-14T08:20:02;20.90;78.00
7117;DHT22;3600;48.568;7.870;2023-06-14T08:22:31;20.90;79.00
7117;DHT22;3600;48.568;7.870;2023-06-14T08:25:01;21.00;76.90
7117;DHT22;3600;48.568;7.870;2023-06-14T08:27:28;21.10;77.30
7117;DHT22;3600;48.568;7.870;2023-06-14T08:29:56;21.10;76.90
7117;DHT22;3600;48.568;7.870;2023-06-14T08:32:23;21.30;78.30
7117;DHT22;3600;48.568;7.870;2023-06-14T08:34:50;21.30;78.30
7117;DHT22;3600;48.568;7.870;2023-06-14T08:37:30;21.40;78.20
7117;DHT22;3600;48.568;7.870;2023-06-14T08:39:57;21.60;77.20
7117;DHT22;3600;48.568;7.870;2023-06-14T08:42:24;21.60;76.70
7117;DHT22;3600;48.568;7.870;2023-06-14T08:44:58;21.80;76.20
7117;DHT22;3600;48.568;7.870;2023-06-14T08:47:26;21.90;75.00
7117;DHT22;3600;48.568;7.870;2023-06-14T08:49:57;21.80;74.90
7117;DHT22;3600;48.568;7.870;2023-06-14T08:52:26;21.90;74.60
7117;DHT22;3600;48.568;7.870;2023-06-14T08:54:57;22.00;75.80
7117;DHT22;3600;48.568;7.870;2023-06-14T08:57:24;22.20;75.40
7117;DHT22;3600;48.568;7.870;2023-06-14T08:59:52;22.30;74.70
7117;DHT22;3600;48.568;7.870;2023-06-14T09:02:20;22.50;75.60
7117;DHT22;3600;48.568;7.870;2023-06-14T09:04:49;22.60;75.20
7117;DHT22;3600;48.568;7.870;2023-06-14T09:07:18;22.50;75.20
7117;DHT22;3600;48.568;7.870;2023-06-14T09:09:48;22.40;75.60
7117;DHT22;3600;48.568;7.870;2023-06-14T09:12:45;22.40;75.90
7117;DHT22;3600;48.568;7.870;2023-06-14T09:15:32;22.60;76.10
7117;DHT22;3600;48.568;7.870;2023-06-14T09:18:16;22.70;74.20
7117;DHT22;3600;48.568;7.870;2023-06-14T09:21:00;22.90;75.60
7117;DHT22;3600;48.568;7.870;2023-06-14T09:23:49;23.10;76.90
7117;DHT22;3600;48.568;7.870;2023-06-14T09:26:25;22.80;75.10
7117;DHT22;3600;48.568;7.870;2023-06-14T09:29:22;22.80;76.10
7117;DHT22;3600;48.568;7.870;2023-06-14T09:31:51;23.00;75.00
7117;DHT22;3600;48.568;7.870;2023-06-14T09:34:26;23.20;76.70
7117;DHT22;3600;48.568;7.870;2023-06-14T09:37:32;23.30;75.90
7117;DHT22;3600;48.568;7.870;2023-06-14T09:43:15;23.40;74.00
7117;DHT22;3600;48.568;7.870;2023-06-14T09:46:06;23.40;73.90
7117;DHT22;3600;48.568;7.870;2023-06-14T09:48:51;23.70;73.60
7117;DHT22;3600;48.568;7.870;2023-06-14T09:51:26;23.90;72.10
7117;DHT22;3600;48.568;7.870;2023-06-14T09:54:03;23.70;71.50
7117;DHT22;3600;48.568;7.870;2023-06-14T09:56:42;23.90;72.10
7117;DHT22;3600;48.568;7.870;2023-06-14T09:59:12;23.60;70.00
7117;DHT22;3600;48.568;7.870;2023-06-14T10:01:48;23.70;70.60
7117;DHT22;3600;48.568;7.870;2023-06-14T10:04:21;23.80;69.70
7117;DHT22;3600;48.568;7.870;2023-06-14T10:07:01;23.80;69.20
7117;DHT22;3600;48.568;7.870;2023-06-14T10:09:42;23.80;69.80
7117;DHT22;3600;48.568;7.870;2023-06-14T10:12:18;24.00;70.40
7117;DHT22;3600;48.568;7.870;2023-06-14T10:15:09;24.30;70.00
7117;DHT22;3600;48.568;7.870;2023-06-14T10:18:52;24.50;69.20
7117;DHT22;3600;48.568;7.870;2023-06-14T10:25:49;24.20;66.00
7117;DHT22;3600;48.568;7.870;2023-06-14T10:33:06;24.80;65.20
7117;DHT22;3600;48.568;7.870;2023-06-14T10:35:41;24.90;64.40
7117;DHT22;3600;48.568;7.870;2023-06-14T10:38:29;24.70;63.10
7117;DHT22;3600;48.568;7.870;2023-06-14T10:44:56;24.80;62.50
7117;DHT22;3600;48.568;7.870;2023-06-14T10:47:38;24.80;61.60
7117;DHT22;3600;48.568;7.870;2023-06-14T10:50:43;24.70;61.70
7117;DHT22;3600;48.568;7.870;2023-06-14T10:53:42;24.50;62.90
7117;DHT22;3600;48.568;7.870;2023-06-14T11:06:14;24.90;60.10
7117;DHT22;3600;48.568;7.870;2023-06-14T11:12:52;24.90;59.00
7117;DHT22;3600;48.568;7.870;2023-06-14T11:15:54;25.00;62.00
7117;DHT22;3600;48.568;7.870;2023-06-14T11:19:18;25.40;61.90
7117;DHT22;3600;48.568;7.870;2023-06-14T11:22:14;25.50;61.00
7117;DHT22;3600;48.568;7.870;2023-06-14T11:25:18;25.30;58.50
7117;DHT22;3600;48.568;7.870;2023-06-14T11:32:05;25.10;56.40
7117;DHT22;3600;48.568;7.870;2023-06-14T11:35:07;25.30;56.80
7117;DHT22;3600;48.568;7.870;2023-06-14T11:41:32;25.60;56.60
7117;DHT22;3600;48.568;7.870;2023-06-14T11:44:20;25.70;57.50
7117;DHT22;3600;48.568;7.870;2023-06-14T11:47:10;25.10;56.60
7117;DHT22;3600;48.568;7.870;2023-06-14T11:49:52;25.30;58.10
7117;DHT22;3600;48.568;7.870;2023-06-14T11:52:45;25.70;57.40
7117;DHT22;3600;48.568;7.870;2023-06-14T11:55:48;25.70;57.60
7117;DHT22;3600;48.568;7.870;2023-06-14T11:59:08;26.00;57.00
7117;DHT22;3600;48.568;7.870;2023-06-14T12:05:33;25.00;56.50
7117;DHT22;3600;48.568;7.870;2023-06-14T12:08:42;25.50;57.00
7117;DHT22;3600;48.568;7.870;2023-06-14T12:11:43;25.80;57.50
7117;DHT22;3600;48.568;7.870;2023-06-14T12:14:49;26.00;57.40
7117;DHT22;3600;48.568;7.870;2023-06-14T12:17:52;25.70;57.00
7117;DHT22;3600;48.568;7.870;2023-06-14T12:24:42;25.70;57.10
7117;DHT22;3600;48.568;7.870;2023-06-14T12:31:11;26.10;54.80
7117;DHT22;3600;48.568;7.870;2023-06-14T12:37:33;25.50;56.60
7117;DHT22;3600;48.568;7.870;2023-06-14T12:40:12;25.50;58.90
7117;DHT22;3600;48.568;7.870;2023-06-14T12:42:55;26.00;58.60
7117;DHT22;3600;48.568;7.870;2023-06-14T12:49:01;26.10;57.60
7117;DHT22;3600;48.568;7.870;2023-06-14T12:56:04;25.80;57.50
7117;DHT22;3600;48.568;7.870;2023-06-14T12:59:00;25.70;58.20
7117;DHT22;3600;48.568;7.870;2023-06-14T13:01:46;25.70;57.80
7117;DHT22;3600;48.568;7.870;2023-06-14T13:04:44;25.50;57.70
7117;DHT22;3600;48.568;7.870;2023-06-14T13:07:33;25.80;58.30
7117;DHT22;3600;48.568;7.870;2023-06-14T13:10:22;26.20;58.20
7117;DHT22;3600;48.568;7.870;2023-06-14T13:13:28;26.10;56.20
7117;DHT22;3600;48.568;7.870;2023-06-14T13:16:17;25.90;58.00
7117;DHT22;3600;48.568;7.870;2023-06-14T13:19:07;25.90;57.70
7117;DHT22;3600;48.568;7.870;2023-06-14T13:21:49;26.00;58.10
7117;DHT22;3600;48.568;7.870;2023-06-14T13:24:25;25.80;56.80
7117;DHT22;3600;48.568;7.870;2023-06-14T13:27:22;26.40;57.90
7117;DHT22;3600;48.568;7.870;2023-06-14T13:30:15;26.40;56.50
7117;DHT22;3600;48.568;7.870;2023-06-14T13:33:06;26.40;55.50
7117;DHT22;3600;48.568;7.870;2023-06-14T13:35:52;25.90;56.90
7117;DHT22;3600;48.568;7.870;2023-06-14T13:38:53;26.10;56.90
7117;DHT22;3600;48.568;7.870;2023-06-14T13:45:02;26.00;56.30
7117;DHT22;3600;48.568;7.870;2023-06-14T13:47:47;26.80;54.80
7117;DHT22;3600;48.568;7.870;2023-06-14T13:50:54;26.20;55.10
7117;DHT22;3600;48.568;7.870;2023-06-14T13:53:45;26.60;56.40
7117;DHT22;3600;48.568;7.870;2023-06-14T13:56:34;26.20;55.30
7117;DHT22;3600;48.568;7.870;2023-06-14T13:59:47;26.60;55.00
7117;DHT22;3600;48.568;7.870;2023-06-14T14:02:57;26.60;55.50
7117;DHT22;3600;48.568;7.870;2023-06-14T14:05:42;26.80;57.10
7117;DHT22;3600;48.568;7.870;2023-06-14T14:08:43;26.90;56.10
7117;DHT22;3600;48.568;7.870;2023-06-14T14:11:19;26.10;54.40
7117;DHT22;3600;48.568;7.870;2023-06-14T14:14:18;26.30;55.30
7117;DHT22;3600;48.568;7.870;2023-06-14T14:17:02;26.70;54.60
7117;DHT22;3600;48.568;7.870;2023-06-14T14:19:29;26.60;55.50
7117;DHT22;3600;48.568;7.870;2023-06-14T14:21:59;26.60;53.40
7117;DHT22;3600;48.568;7.870;2023-06-14T14:24:47;27.00;54.10
7117;DHT22;3600;48.568;7.870;2023-06-14T14:27:16;26.60;55.00
7117;DHT22;3600;48.568;7.870;2023-06-14T14:29:47;26.50;55.70
7117;DHT22;3600;48.568;7.870;2023-06-14T14:32:18;26.90;55.70
7117;DHT22;3600;48.568;7.870;2023-06-14T14:34:45;26.60;54.10
7117;DHT22;3600;48.568;7.870;2023-06-14T14:37:17;26.70;54.40
7117;DHT22;3600;48.568;7.870;2023-06-14T14:39:44;26.60;53.80
7117;DHT22;3600;48.568;7.870;2023-06-14T14:42:12;26.30;55.30
7117;DHT22;3600;48.568;7.870;2023-06-14T14:44:43;26.20;56.20
7117;DHT22;3600;48.568;7.870;2023-06-14T14:47:13;26.20;56.60
7117;DHT22;3600;48.568;7.870;2023-06-14T14:49:42;26.20;57.00
7117;DHT22;3600;48.568;7.870;2023-06-14T14:52:12;26.40;55.10
7117;DHT22;3600;48.568;7.870;2023-06-14T14:54:50;26.60;55.70
7117;DHT22;3600;48.568;7.870;2023-06-14T14:57:31;26.70;56.10
7117;DHT22;3600;48.568;7.870;2023-06-14T15:00:10;26.60;56.10
7117;DHT22;3600;48.568;7.870;2023-06-14T15:11:05;26.10;57.10
7117;DHT22;3600;48.568;7.870;2023-06-14T15:14:10;26.00;57.30
7117;DHT22;3600;48.568;7.870;2023-06-14T15:17:21;25.80;57.80
7117;DHT22;3600;48.568;7.870;2023-06-14T15:20:09;26.00;59.10
7117;DHT22;3600;48.568;7.870;2023-06-14T15:22:58;26.00;58.10
7117;DHT22;3600;48.568;7.870;2023-06-14T15:25:46;26.40;57.90
7117;DHT22;3600;48.568;7.870;2023-06-14T15:28:37;26.20;57.90
7117;DHT22;3600;48.568;7.870;2023-06-14T15:31:19;26.50;57.80
7117;DHT22;3600;48.568;7.870;2023-06-14T15:34:13;26.30;57.60
7117;DHT22;3600;48.568;7.870;2023-06-14T15:36:57;26.30;58.10
7117;DHT22;3600;48.568;7.870;2023-06-14T15:39:54;25.80;57.50
7117;DHT22;3600;48.568;7.870;2023-06-14T15:42:40;26.20;57.20
7117;DHT22;3600;48.568;7.870;2023-06-14T15:45:24;26.10;57.20
7117;DHT22;3600;48.568;7.870;2023-06-14T15:48:33;25.90;56.60
7117;DHT22;3600;48.568;7.870;2023-06-14T15:51:08;25.40;57.50
7117;DHT22;3600;48.568;7.870;2023-06-14T15:54:18;25.60;58.00
7117;DHT22;3600;48.568;7.870;2023-06-14T15:57:17;25.60;57.90
7117;DHT22;3600;48.568;7.870;2023-06-14T16:00:18;25.40;58.00
7117;DHT22;3600;48.568;7.870;2023-06-14T16:03:40;25.70;58.90
7117;DHT22;3600;48.568;7.870;2023-06-14T16:10:08;25.80;59.10
7117;DHT22;3600;48.568;7.870;2023-06-14T16:12:47;25.40;57.60
7117;DHT22;3600;48.568;7.870;2023-06-14T16:15:27;25.70;58.70
7117;DHT22;3600;48.568;7.870;2023-06-14T16:18:30;25.80;57.90
7117;DHT22;3600;48.568;7.870;2023-06-14T16:21:30;25.60;58.20
7117;DHT22;3600;48.568;7.870;2023-06-14T16:24:13;25.50;58.40
7117;DHT22;3600;48.568;7.870;2023-06-14T16:27:26;25.30;57.90
7117;DHT22;3600;48.568;7.870;2023-06-14T16:30:20;25.20;58.00
7117;DHT22;3600;48.568;7.870;2023-06-14T16:33:00;25.30;58.30
7117;DHT22;3600;48.568;7.870;2023-06-14T16:39:12;25.20;58.40
7117;DHT22;3600;48.568;7.870;2023-06-14T16:42:00;25.20;57.90
7117;DHT22;3600;48.568;7.870;2023-06-14T16:44:50;25.20;57.80
7117;DHT22;3600;48.568;7.870;2023-06-14T16:47:34;25.20;58.70
7117;DHT22;3600;48.568;7.870;2023-06-14T16:50:14;25.10;58.30
7117;DHT22;3600;48.568;7.870;2023-06-14T16:53:33;25.00;59.10
7117;DHT22;3600;48.568;7.870;2023-06-14T16:56:41;25.10;58.60
7117;DHT22;3600;48.568;7.870;2023-06-14T16:59:32;25.20;58.90
7117;DHT22;3600;48.568;7.870;2023-06-14T17:02:21;25.00;58.40
7117;DHT22;3600;48.568;7.870;2023-06-14T17:05:15;25.00;59.00
7117;DHT22;3600;48.568;7.870;2023-06-14T17:08:10;25.00;59.40
7117;DHT22;3600;48.568;7.870;2023-06-14T17:11:12;24.90;59.00
7117;DHT22;3600;48.568;7.870;2023-06-14T17:14:05;24.80;59.40
7117;DHT22;3600;48.568;7.870;2023-06-14T17:17:06;24.90;60.60
7117;DHT22;3600;48.568;7.870;2023-06-14T17:19:51;24.80;60.70
7117;DHT22;3600;48.568;7.870;2023-06-14T17:22:54;24.80;61.10
7117;DHT22;3600;48.568;7.870;2023-06-14T17:26:05;24.70;60.00
7117;DHT22;3600;48.568;7.870;2023-06-14T17:28:55;24.50;59.40
7117;DHT22;3600;48.568;7.870;2023-06-14T17:31:37;24.50;59.40
7117;DHT22;3600;48.568;7.870;2023-06-14T17:34:42;24.60;60.10
7117;DHT22;3600;48.568;7.870;2023-06-14T17:40:54;24.60;60.80
7117;DHT22;3600;48.568;7.870;2023-06-14T17:44:01;24.40;61.90
7117;DHT22;3600;48.568;7.870;2023-06-14T17:47:16;24.30;61.10
7117;DHT22;3600;48.568;7.870;2023-06-14T17:50:33;24.40;61.60
7117;DHT22;3600;48.568;7.870;2023-06-14T17:56:50;24.10;61.80
7117;DHT22;3600;48.568;7.870;2023-06-14T17:59:32;24.20;60.90
7117;DHT22;3600;48.568;7.870;2023-06-14T18:02:33;24.20;61.90
7117;DHT22;3600;48.568;7.870;2023-06-14T18:05:33;24.10;62.30
7117;DHT22;3600;48.568;7.870;2023-06-14T18:08:28;24.10;62.30
7117;DHT22;3600;48.568;7.870;2023-06-14T18:11:33;24.00;62.70
7117;DHT22;3600;48.568;7.870;2023-06-14T18:14:34;24.00;63.00
7117;DHT22;3600;48.568;7.870;2023-06-14T18:17:19;24.00;63.30
7117;DHT22;3600;48.568;7.870;2023-06-14T18:19:52;23.80;64.20
7117;DHT22;3600;48.568;7.870;2023-06-14T18:22:54;23.70;63.90
7117;DHT22;3600;48.568;7.870;2023-06-14T18:26:03;23.60;64.20
7117;DHT22;3600;48.568;7.870;2023-06-14T18:28:36;23.50;64.30
7117;DHT22;3600;48.568;7.870;2023-06-14T18:32:02;23.60;63.50
7117;DHT22;3600;48.568;7.870;2023-06-14T18:35:15;23.60;63.70
7117;DHT22;3600;48.568;7.870;2023-06-14T18:41:41;23.40;64.40
7117;DHT22;3600;48.568;7.870;2023-06-14T18:45:05;23.20;64.00
7117;DHT22;3600;48.568;7.870;2023-06-14T18:47:59;23.10;64.60
7117;DHT22;3600;48.568;7.870;2023-06-14T18:51:19;23.00;65.10